Time;durP1;ratioP1;P1;durP2;ratioP2;P2;SDS_P1;SDS_P2;PMS_P1;PMS_P2;Temp;Humidity;BMP_temperature;BMP_pressure;BME280_temperature;BME280_humidity;BME280_pressure;Samples;Min_cycle;Max_cycle;Signal;HPM_P1;HPM_P2
2022/08/07 00:02:21;;;;;;;3.70;3.60;;;;;;;13.80;100.00;102635.44;5224280;28;20162;-57
2022/08/07 00:04:52;;;;;;;4.50;4.22;;;;;;;13.75;100.00;102627.16;5223694;28;20020;-57
2022/08/07 00:07:22;;;;;;;4.80;4.50;;;;;;;13.74;100.00;102621.97;5223869;28;20453;-58
2022/08/07 00:09:52;;;;;;;4.53;4.22;;;;;;;13.73;100.00;102625.75;5223963;28;20024;-56
2022/08/07 00:12:23;;;;;;;5.07;4.88;;;;;;;13.26;100.00;102565.97;5223834;28;20358;-59
2022/08/07 00:14:53;;;;;;;4.85;4.40;;;;;;;13.67;100.00;102623.97;5223156;28;20077;-60
2022/08/07 00:17:24;;;;;;;5.40;4.88;;;;;;;13.65;100.00;102610.63;5224018;28;20107;-57
2022/08/07 00:19:54;;;;;;;5.55;5.25;;;;;;;13.62;100.00;102607.53;5223971;28;20020;-58
2022/08/07 00:22:25;;;;;;;4.65;4.28;;;;;;;13.58;100.00;102609.88;5224067;28;20025;-57
2022/08/07 00:24:55;;;;;;;4.72;4.43;;;;;;;13.57;100.00;102607.44;5204353;28;20021;-58
2022/08/07 00:27:26;;;;;;;3.85;3.65;;;;;;;13.48;100.00;102605.06;5205492;28;20029;-61
2022/08/07 00:29:56;;;;;;;4.80;4.47;;;;;;;13.51;100.00;102601.88;5205803;28;20021;-58
2022/08/07 00:32:26;;;;;;;6.88;4.85;;;;;;;13.48;100.00;102604.22;5223690;28;20099;-60
2022/08/07 00:34:57;;;;;;;5.30;5.10;;;;;;;13.45;100.00;102599.25;5223149;28;20468;-58
2022/08/07 00:37:27;;;;;;;5.13;4.80;;;;;;;13.35;100.00;102594.38;5205988;28;20031;-59
2022/08/07 00:39:57;;;;;;;6.28;5.68;;;;;;;13.31;100.00;102587.75;5205766;28;20032;-58
2022/08/07 00:42:28;;;;;;;4.45;4.20;;;;;;;13.35;100.00;102597.09;5223425;28;20442;-58
2022/08/07 00:44:58;;;;;;;7.95;5.38;;;;;;;13.35;100.00;102605.25;5222568;28;20032;-59
2022/08/07 00:47:29;;;;;;;10.32;5.13;;;;;;;13.34;100.00;102603.59;5223062;28;20032;-57
2022/08/07 00:49:59;;;;;;;5.90;5.50;;;;;;;13.22;100.00;102581.03;5223271;28;20357;-61
2022/08/07 00:52:30;;;;;;;6.22;5.60;;;;;;;13.25;100.00;102599.56;5222806;28;20049;-59
2022/08/07 00:55:00;;;;;;;5.43;5.13;;;;;;;13.19;100.00;102600.47;5222164;28;20370;-59
2022/08/07 00:57:31;;;;;;;6.32;5.90;;;;;;;13.15;100.00;102591.97;5222694;28;20409;-59
2022/08/07 01:00:07;;;;;;;8.60;5.20;;;;;;;13.04;100.00;102578.34;5223129;28;20025;-59
2022/08/07 01:02:39;;;;;;;6.05;5.47;;;;;;;13.11;100.00;102595.34;5222744;28;20017;-58
2022/08/07 01:05:10;;;;;;;4.72;4.43;;;;;;;13.08;100.00;102593.09;5221949;28;20023;-58
2022/08/07 01:07:40;;;;;;;5.88;5.35;;;;;;;13.04;100.00;102583.75;5222676;28;20044;-59
2022/08/07 01:10:11;;;;;;;5.45;5.15;;;;;;;12.98;100.00;102576.56;5204760;28;20120;-59
2022/08/07 01:12:42;;;;;;;5.35;5.15;;;;;;;13.01;100.00;102587.75;5223022;28;20445;-60
2022/08/07 01:15:13;;;;;;;6.45;5.68;;;;;;;12.78;100.00;102555.94;5203902;28;20429;-59
2022/08/07 01:17:43;;;;;;;6.05;5.43;;;;;;;12.90;100.00;102569.56;5222484;28;20112;-61
2022/08/07 01:20:15;;;;;;;4.82;4.63;;;;;;;12.94;100.00;102573.47;5222471;28;20028;-60
2022/08/07 01:22:45;;;;;;;6.30;5.75;;;;;;;12.92;100.00;102577.47;5222486;28;20083;-59
2022/08/07 01:25:17;;;;;;;6.07;5.68;;;;;;;12.90;100.00;102585.84;5221559;28;20021;-60
2022/08/07 01:27:49;;;;;;;6.88;6.38;;;;;;;12.88;100.00;102577.09;5222172;28;20115;-60
2022/08/07 01:30:19;;;;;;;6.18;5.78;;;;;;;12.85;100.00;102578.38;5222185;28;20029;-60
2022/08/07 01:32:50;;;;;;;6.95;6.13;;;;;;;12.81;100.00;102570.94;5222291;28;20449;-60
2022/08/07 01:35:20;;;;;;;7.95;5.53;;;;;;;12.70;100.00;102556.28;5221583;28;20024;-58
2022/08/07 01:37:51;;;;;;;5.70;5.40;;;;;;;12.76;100.00;102565.38;5222111;28;20052;-59
2022/08/07 01:40:23;;;;;;;6.40;6.00;;;;;;;12.66;100.00;102549.66;5221849;28;20025;-59
2022/08/07 01:42:54;;;;;;;7.47;7.00;;;;;;;12.73;100.00;102555.81;5222045;28;20021;-59
2022/08/07 01:45:25;;;;;;;6.13;5.65;;;;;;;12.70;100.00;102559.00;5221356;28;20029;-60
2022/08/07 01:47:55;;;;;;;7.05;6.50;;;;;;;12.66;100.00;102549.66;5222507;28;20049;-57
2022/08/07 01:50:27;;;;;;;6.20;5.88;;;;;;;12.68;100.00;102557.56;5221903;28;20025;-58
2022/08/07 01:53:00;;;;;;;6.50;6.10;;;;;;;12.67;100.00;102553.22;5203924;28;20461;-58
2022/08/07 01:55:38;;;;;;;7.43;7.03;;;;;;;12.57;100.00;102545.63;5221470;28;20041;-60
2022/08/07 01:58:10;;;;;;;7.72;7.13;;;;;;;12.42;100.00;102524.31;5222203;28;20031;-60
2022/08/07 02:00:41;;;;;;;8.00;7.50;;;;;;;12.62;100.00;102567.44;5221653;28;20021;-60
2022/08/07 02:03:14;;;;;;;7.72;7.10;;;;;;;12.61;100.00;102565.78;5221607;28;20055;-59
2022/08/07 02:05:55;;;;;;;6.75;6.20;;;;;;;12.62;100.00;102562.03;5203522;28;20044;-59
2022/08/07 02:08:28;;;;;;;7.78;7.18;;;;;;;12.60;100.00;102558.72;5221808;28;20021;-59
2022/08/07 02:11:00;;;;;;;7.78;7.15;;;;;;;12.56;100.00;102562.94;5221312;28;20021;-59
2022/08/07 02:13:33;;;;;;;7.72;7.13;;;;;;;12.49;100.00;102551.34;5220979;28;20087;-59
2022/08/07 02:16:06;;;;;;;10.30;6.63;;;;;;;12.49;100.00;102551.34;5222195;28;20371;-59
2022/08/07 02:18:38;;;;;;;8.98;7.80;;;;;;;12.43;100.00;102544.09;5221894;28;20028;-60
2022/08/07 02:21:09;;;;;;;8.77;8.10;;;;;;;12.43;100.00;102544.94;5203446;28;20108;-59
2022/08/07 02:23:39;;;;;;;7.55;7.03;;;;;;;12.38;100.00;102533.16;5220638;28;20139;-60
2022/08/07 02:26:12;;;;;;;6.63;6.32;;;;;;;12.41;100.00;102543.53;5221432;28;20028;-60
2022/08/07 02:28:43;;;;;;;8.45;7.85;;;;;;;12.40;100.00;102544.59;5221675;28;20049;-60
2022/08/07 02:31:14;;;;;;;8.75;7.72;;;;;;;12.38;100.00;102544.00;5221696;28;20063;-60
2022/08/07 02:33:45;;;;;;;6.43;6.10;;;;;;;12.37;100.00;102545.88;5221064;28;20653;-58
2022/08/07 02:36:17;;;;;;;8.25;7.68;;;;;;;12.25;100.00;102523.28;5203713;28;20461;-59
2022/08/07 02:38:49;;;;;;;7.63;7.13;;;;;;;12.32;100.00;102534.88;5203777;28;20128;-60
2022/08/07 02:41:20;;;;;;;7.22;6.72;;;;;;;12.21;100.00;102534.78;5222278;28;20034;-60
2022/08/07 02:43:52;;;;;;;7.88;7.38;;;;;;;12.27;100.00;102536.59;5221423;28;20055;-58
2022/08/07 02:46:25;;;;;;;9.10;8.30;;;;;;;12.18;100.00;102528.78;5281254;22;20054;-82
2022/08/07 02:48:56;;;;;;;8.63;8.10;;;;;;;12.29;100.00;102534.50;5275679;28;20024;-82
2022/08/07 02:51:31;;;;;;;7.32;6.85;;;;;;;12.20;100.00;102519.59;5282915;28;20024;-82
2022/08/07 02:54:04;;;;;;;8.80;8.40;;;;;;;12.08;100.00;102509.53;5282405;28;20024;-82
2022/08/07 02:56:38;;;;;;;8.38;7.88;;;;;;;12.26;100.00;102530.34;5265179;28;20028;-82
2022/08/07 02:59:13;;;;;;;8.95;8.25;;;;;;;12.16;100.00;102517.34;5282964;28;20029;-83
2022/08/07 03:01:44;;;;;;;8.25;7.75;;;;;;;12.24;100.00;102537.06;5283358;28;20541;-82
2022/08/07 03:04:17;;;;;;;7.43;7.00;;;;;;;11.93;100.00;102487.41;5264493;28;20028;-83
2022/08/07 03:06:49;;;;;;;7.72;7.25;;;;;;;11.92;100.00;102483.03;5265228;28;20019;-83
2022/08/07 03:09:20;;;;;;;7.32;6.72;;;;;;;12.20;100.00;102527.72;5282864;28;20051;-83
2022/08/07 03:11:51;;;;;;;9.38;8.48;;;;;;;12.13;100.00;102520.50;5265226;28;20019;-83
2022/08/07 03:14:22;;;;;;;9.38;8.48;;;;;;;12.06;100.00;102510.81;5282658;28;20024;-83
2022/08/07 03:16:53;;;;;;;9.25;8.48;;;;;;;12.04;100.00;102512.91;5266158;28;20023;-83
2022/08/07 03:19:24;;;;;;;8.40;7.90;;;;;;;12.12;100.00;102524.28;5283814;28;20024;-83
2022/08/07 03:21:55;;;;;;;8.07;7.40;;;;;;;12.01;100.00;102508.78;5284204;28;20031;-82
2022/08/07 03:24:26;;;;;;;8.68;7.88;;;;;;;12.09;100.00;102524.72;5283222;28;20027;-83
2022/08/07 03:27:01;;;;;;;8.57;7.97;;;;;;;11.97;100.00;102512.97;5284037;28;20020;-83
2022/08/07 03:29:37;;;;;;;7.63;7.00;;;;;;;11.87;100.00;102503.72;5284206;28;20088;-84
2022/08/07 03:32:10;;;;;;;9.48;8.88;;;;;;;12.02;100.00;102523.13;5284385;28;20043;-83
2022/08/07 03:34:48;;;;;;;8.05;7.40;;;;;;;11.93;100.00;102519.06;5266004;28;20024;-83
2022/08/07 03:37:20;;;;;;;38.45;10.40;;;;;;;11.76;100.00;102494.44;5283559;28;20096;-84
2022/08/07 03:39:51;;;;;;;9.65;8.82;;;;;;;11.68;100.00;102489.31;5283208;28;20020;-84
2022/08/07 03:42:22;;;;;;;7.70;7.18;;;;;;;11.83;100.00;102533.13;5264784;28;20028;-84
2022/08/07 03:44:53;;;;;;;7.25;6.85;;;;;;;11.63;100.00;102516.22;5264325;28;20039;-84
2022/08/07 03:47:25;;;;;;;9.57;8.80;;;;;;;11.67;100.00;102522.84;5264431;28;20028;-83
2022/08/07 03:49:56;;;;;;;7.80;7.10;;;;;;;11.74;100.00;102521.72;5282264;28;20059;-83
2022/08/07 03:52:28;;;;;;;9.65;9.05;;;;;;;11.82;100.00;102542.31;5282739;28;20511;-84
2022/08/07 03:54:59;;;;;;;10.23;9.52;;;;;;;11.79;100.00;102540.88;5263900;28;20031;-84
2022/08/07 03:57:32;;;;;;;8.65;7.85;;;;;;;11.78;100.00;102554.63;5287527;28;20005;-85
2022/08/07 04:00:03;;;;;;;11.25;9.63;;;;;;;11.69;100.00;102547.78;5290691;28;20050;-84
2022/08/07 04:02:34;;;;;;;10.50;9.73;;;;;;;11.42;100.00;102509.31;5292994;28;20061;-84
2022/08/07 04:05:06;;;;;;;8.60;7.90;;;;;;;11.43;100.00;102519.09;5292215;28;20050;-84
2022/08/07 04:07:37;;;;;;;8.48;7.88;;;;;;;11.53;100.00;102545.66;5293279;28;20058;-84
2022/08/07 04:10:07;;;;;;;8.50;7.80;;;;;;;11.28;100.00;102514.00;5292668;28;20015;-84
2022/08/07 04:12:39;;;;;;;10.20;9.30;;;;;;;11.43;100.00;102548.84;5291504;28;20257;-84
2022/08/07 04:15:11;;;;;;;12.10;11.05;;;;;;;11.36;100.00;102548.06;5291516;28;20007;-84
2022/08/07 04:17:43;;;;;;;9.93;9.20;;;;;;;11.34;100.00;102553.69;5290255;28;20024;-85
2022/08/07 04:20:13;;;;;;;8.52;7.80;;;;;;;11.37;100.00;102547.03;5268477;28;20110;-85
2022/08/07 04:22:45;;;;;;;10.32;9.02;;;;;;;11.25;100.00;102517.19;5284709;28;20024;-84
2022/08/07 04:25:17;;;;;;;12.43;10.65;;;;;;;11.48;100.00;102544.44;5283356;28;20062;-84
2022/08/07 04:27:47;;;;;;;10.15;9.15;;;;;;;11.58;100.00;102546.63;5265987;28;20020;-84
2022/08/07 04:30:18;;;;;;;9.68;8.90;;;;;;;11.40;100.00;102514.97;5283851;28;20024;-84
2022/08/07 04:32:49;;;;;;;9.68;8.85;;;;;;;11.44;100.00;102529.69;5264842;28;20023;-84
2022/08/07 04:35:19;;;;;;;9.98;9.00;;;;;;;11.61;100.00;102558.91;5260242;28;20483;-84
2022/08/07 04:37:50;;;;;;;9.63;8.70;;;;;;;11.49;100.00;102556.94;5278415;28;20027;-84
2022/08/07 04:40:20;;;;;;;9.35;8.75;;;;;;;11.38;100.00;102532.44;5280307;28;20035;-86
2022/08/07 04:42:51;;;;;;;12.40;11.15;;;;;;;11.54;100.00;102566.25;5284711;28;20023;-86
2022/08/07 04:45:27;;;;;;;9.57;8.88;;;;;;;11.56;100.00;102556.03;5284247;28;20028;-86
2022/08/07 04:48:16;;;;;;;11.43;10.35;;;;;;;11.46;100.00;102549.25;5284623;28;20012;-86
2022/08/07 04:50:55;;;;;;;10.63;9.82;;;;;;;11.60;100.00;102562.66;5265235;28;20020;-85
2022/08/07 04:53:38;;;;;;;8.77;8.13;;;;;;;11.65;100.00;102554.69;5281673;28;20032;-84
2022/08/07 04:56:19;;;;;;;11.25;10.50;;;;;;;11.52;100.00;102538.59;5282117;28;20066;-84
2022/08/07 04:59:09;;;;;;;10.27;9.35;;;;;;;11.81;100.00;102560.44;5263166;28;20012;-84
2022/08/07 05:02:02;;;;;;;9.75;9.10;;;;;;;11.81;100.00;102546.91;5281531;28;20028;-85
2022/08/07 05:04:59;;;;;;;10.32;9.43;;;;;;;11.91;100.00;102554.47;5280710;28;20032;-84
2022/08/07 05:07:36;;;;;;;10.38;9.45;;;;;;;11.91;100.00;102546.34;5281860;28;20031;-85
2022/08/07 05:10:47;;;;;;;10.90;10.18;;;;;;;12.10;100.00;102569.72;5280858;28;20024;-85
2022/08/07 05:13:35;;;;;;;9.93;9.02;;;;;;;12.11;100.00;102557.84;5279913;28;20040;-85
2022/08/07 05:16:11;;;;;;;9.48;8.88;;;;;;;12.20;100.00;102568.34;5281205;28;20024;-85
2022/08/07 05:18:50;;;;;;;12.98;11.98;;;;;;;12.25;100.00;102565.81;5264911;28;20114;-86
2022/08/07 05:21:25;;;;;;;9.85;9.10;;;;;;;12.26;100.00;102571.00;5264038;28;20032;-86
2022/08/07 05:24:03;;;;;;;11.70;10.90;;;;;;;12.35;100.00;102576.94;5282530;28;20085;-86
2022/08/07 05:26:35;;;;;;;10.00;9.02;;;;;;;12.25;100.00;102547.66;5264722;28;20059;-86
2022/08/07 05:29:08;;;;;;;9.60;8.85;;;;;;;12.40;100.00;102563.56;5265031;28;20028;-86
2022/08/07 05:31:41;;;;;;;8.57;7.75;;;;;;;12.45;100.00;102553.66;5264239;28;20017;-86
2022/08/07 05:34:15;;;;;;;11.70;9.15;;;;;;;12.66;100.00;102576.78;5281695;28;20024;-86
2022/08/07 05:36:48;;;;;;;10.07;9.38;;;;;;;12.74;100.00;102573.72;5264154;28;20028;-86
2022/08/07 05:39:21;;;;;;;9.68;8.88;;;;;;;12.85;100.00;102577.56;5281570;28;20026;-86
2022/08/07 05:41:52;;;;;;;9.80;9.20;;;;;;;12.87;100.00;102570.03;5281173;28;20404;-86
2022/08/07 05:44:23;;;;;;;9.02;8.23;;;;;;;12.81;100.00;102544.66;5280835;28;20016;-85
2022/08/07 05:46:56;;;;;;;9.73;8.85;;;;;;;12.88;100.00;102541.03;5279290;28;20059;-85
2022/08/07 05:49:27;;;;;;;10.45;9.55;;;;;;;13.07;100.00;102564.31;5280173;28;20052;-86
2022/08/07 05:51:58;;;;;;;11.85;10.07;;;;;;;13.24;100.00;102572.66;5262901;28;20023;-87
2022/08/07 05:54:28;;;;;;;10.30;8.45;;;;;;;13.34;100.00;102581.88;5262214;28;20035;-86
2022/08/07 05:57:01;;;;;;;8.52;7.97;;;;;;;13.43;100.00;102588.63;5262570;28;20020;-86
2022/08/07 05:59:36;;;;;;;9.32;8.18;;;;;;;13.47;100.00;102580.84;5279949;28;20019;-86
2022/08/07 06:02:12;;;;;;;9.43;8.65;;;;;;;13.60;100.00;102586.06;5262481;28;20016;-86
2022/08/07 06:04:51;;;;;;;8.48;7.70;;;;;;;13.52;100.00;102565.53;5279821;28;20035;-86
2022/08/07 06:07:22;;;;;;;8.60;7.78;;;;;;;13.78;100.00;102588.69;5265469;28;20545;-86
2022/08/07 06:09:53;;;;;;;8.05;7.38;;;;;;;13.84;100.00;102584.22;5280530;28;20027;-83
2022/08/07 06:12:23;;;;;;;6.85;6.43;;;;;;;13.75;100.00;102555.75;5281180;28;20020;-85
2022/08/07 06:14:54;;;;;;;8.88;8.18;;;;;;;13.80;100.00;102537.69;5262136;28;20020;-85
2022/08/07 06:17:26;;;;;;;8.90;7.75;;;;;;;14.07;100.00;102581.47;5280666;28;20059;-83
2022/08/07 06:19:57;;;;;;;9.70;8.90;;;;;;;14.18;100.00;102591.50;5280373;28;20028;-84
2022/08/07 06:22:30;;;;;;;8.05;7.25;;;;;;;14.25;100.00;102568.81;5246894;28;20451;-83
2022/08/07 06:25:00;;;;;;;8.85;8.25;;;;;;;14.37;100.00;102592.19;5285051;28;20381;-84
2022/08/07 06:27:31;;;;;;;6.75;6.30;;;;;;;14.23;100.00;102563.63;5285909;28;20034;-85
2022/08/07 06:30:02;;;;;;;8.18;7.68;;;;;;;14.55;100.00;102582.25;5285620;28;20042;-83
2022/08/07 06:32:32;;;;;;;7.00;6.38;;;;;;;14.48;100.00;102566.91;5266973;28;20020;-85
2022/08/07 06:35:03;;;;;;;9.38;7.57;;;;;;;14.71;100.00;102581.50;5247937;28;20029;-83
2022/08/07 06:37:33;;;;;;;8.45;7.63;;;;;;;14.53;100.00;102542.53;5256552;28;20020;-82
2022/08/07 06:40:04;;;;;;;8.20;6.18;;;;;;;14.85;100.00;102571.97;5275924;28;20605;-83
2022/08/07 06:42:36;;;;;;;11.65;8.02;;;;;;;14.90;100.00;102566.66;5283139;28;20050;-84
2022/08/07 06:45:12;;;;;;;6.85;6.35;;;;;;;15.07;100.00;102572.13;5283662;28;20043;-85
2022/08/07 06:47:43;;;;;;;9.52;6.80;;;;;;;15.16;100.00;102565.22;5284068;28;20493;-82
2022/08/07 06:50:14;;;;;;;6.70;6.20;;;;;;;15.29;100.00;102562.19;5266452;28;20024;-84
2022/08/07 06:52:49;;;;;;;8.48;7.75;;;;;;;15.43;100.00;102563.50;5252756;28;20098;-82
2022/08/07 06:55:26;;;;;;;8.48;7.72;;;;;;;15.66;100.00;102569.88;5241562;28;20020;-82
2022/08/07 06:58:03;;;;;;;7.18;6.55;;;;;;;15.41;100.00;102489.41;5241428;28;20084;-83
2022/08/07 07:00:36;;;;;;;7.05;6.43;;;;;;;15.97;100.00;102549.38;5241560;28;20506;-81
2022/08/07 07:03:08;;;;;;;7.25;6.75;;;;;;;16.24;100.00;102563.91;5223547;28;20025;-81
2022/08/07 07:05:39;;;;;;;7.60;5.68;;;;;;;16.51;100.00;102574.91;5239247;28;20029;-81
2022/08/07 07:08:11;;;;;;;8.10;7.13;;;;;;;16.59;100.00;102558.09;5238599;28;20403;-81
2022/08/07 07:10:41;;;;;;;13.23;7.80;;;;;;;16.84;100.00;102574.78;5238046;28;20024;-80
2022/08/07 07:13:21;;;;;;;7.30;6.60;;;;;;;16.97;100.00;102554.47;5221009;28;20028;-81
2022/08/07 07:15:56;;;;;;;;;;;;;;;17.32;100.00;102572.25;5240118;28;20025;-81
2022/08/07 07:18:37;;;;;;;8.32;7.55;;;;;;;17.41;100.00;102530.53;5240136;28;19940;-80
2022/08/07 07:21:14;;;;;;;7.63;6.88;;;;;;;17.69;100.00;102553.19;5238178;28;20116;-82
2022/08/07 07:23:45;;;;;;;6.30;5.80;;;;;;;17.96;100.00;102561.28;5240456;28;20133;-80
2022/08/07 07:26:19;;;;;;;5.68;5.20;;;;;;;18.19;100.00;102558.94;5240183;28;20080;-82
2022/08/07 07:29:01;;;;;;;9.95;5.43;;;;;;;18.51;100.00;102561.56;5239810;28;20025;-82
2022/08/07 07:31:40;;;;;;;7.88;7.18;;;;;;;18.73;100.00;102569.63;5241798;28;20024;-81
2022/08/07 07:34:15;;;;;;;6.78;6.18;;;;;;;18.71;100.00;102517.06;5223105;28;20028;-83
2022/08/07 07:36:48;;;;;;;6.68;6.18;;;;;;;19.14;100.00;102553.25;5223580;28;20036;-82
2022/08/07 07:39:21;;;;;;;5.38;4.88;;;;;;;19.41;100.00;102558.47;5241009;28;20024;-81
2022/08/07 07:41:54;;;;;;;5.97;5.45;;;;;;;19.60;100.00;102556.03;5240601;28;20028;-82
2022/08/07 07:44:27;;;;;;;5.95;5.65;;;;;;;19.58;100.00;102522.59;5246053;28;20029;-83
2022/08/07 07:47:00;;;;;;;6.20;5.72;;;;;;;19.85;100.00;102550.53;5246114;28;20047;-83
2022/08/07 07:49:33;;;;;;;6.72;6.22;;;;;;;20.07;100.00;102550.19;5242647;28;20048;-83
2022/08/07 07:52:04;;;;;;;13.88;4.68;;;;;;;19.99;100.00;102523.31;5260634;28;20069;-82
2022/08/07 07:54:36;;;;;;;4.40;4.20;;;;;;;20.27;100.00;102538.31;5251133;28;20021;-82
2022/08/07 07:57:09;;;;;;;5.30;4.90;;;;;;;20.52;100.00;102540.97;5258344;28;20060;-82
2022/08/07 07:59:41;;;;;;;5.65;5.20;;;;;;;20.69;100.00;102535.13;5260108;28;20064;-83
2022/08/07 08:02:14;;;;;;;7.72;6.85;;;;;;;20.70;100.00;102532.09;5246234;28;20033;-82
2022/08/07 08:04:45;;;;;;;10.60;5.28;;;;;;;20.84;100.00;102533.09;5254529;28;20043;-83
2022/08/07 08:07:23;;;;;;;5.75;5.25;;;;;;;21.01;100.00;102540.16;5240932;28;20040;-82
2022/08/07 08:09:54;;;;;;;4.80;4.40;;;;;;;21.18;100.00;102530.38;5224124;28;20029;-84
2022/08/07 08:12:25;;;;;;;6.18;5.63;;;;;;;21.36;100.00;102534.41;5239343;28;20028;-82
2022/08/07 08:14:55;;;;;;;4.75;4.45;;;;;;;21.47;98.33;102535.94;5249602;28;20028;-83
2022/08/07 08:17:28;;;;;;;5.50;5.13;;;;;;;21.54;94.50;102541.94;5256306;28;20084;-82
2022/08/07 08:20:02;;;;;;;4.85;4.45;;;;;;;21.37;93.09;102527.78;5239346;28;20040;-83
2022/08/07 08:28:27;;;;;;;3.97;3.78;;;;;;;21.48;88.95;102531.25;5248151;28;20521;-83
2022/08/07 08:31:00;;;;;;;5.35;4.93;;;;;;;21.52;88.39;102513.91;5238830;28;20028;-80
2022/08/07 08:33:33;;;;;;;7.40;5.10;;;;;;;21.42;87.90;102538.72;5237486;28;20028;-83
2022/08/07 08:36:07;;;;;;;4.43;4.03;;;;;;;21.38;89.56;102529.41;5232132;28;20016;-85
2022/08/07 08:38:42;;;;;;;5.63;3.22;;;;;;;21.63;87.87;102533.88;5261026;28;20486;-82
2022/08/07 08:41:45;;;;;;;3.45;3.25;;;;;;;21.93;87.23;102542.94;5240261;28;20155;-82
2022/08/07 08:44:27;;;;;;;3.72;3.58;;;;;;;21.97;85.98;102524.69;5250155;28;20021;-82
2022/08/07 08:47:04;;;;;;;3.45;3.25;;;;;;;22.17;83.82;102541.84;5245407;22;20037;-59
2022/08/07 08:49:44;;;;;;;3.67;3.47;;;;;;;22.05;82.66;102543.34;5205233;28;20687;-60
2022/08/07 08:52:49;;;;;;;3.90;3.60;;;;;;;21.98;83.44;102535.41;5219549;28;20034;-62
2022/08/07 08:55:51;;;;;;;4.40;3.70;;;;;;;22.14;82.13;102536.91;5207112;28;20052;-59
2022/08/07 08:58:53;;;;;;;4.70;4.40;;;;;;;21.92;82.21;102536.59;5197297;28;20168;-61
2022/08/07 09:02:00;;;;;;;4.75;4.40;;;;;;;21.94;82.07;102526.13;5201763;28;20021;-62
2022/08/07 09:04:39;;;;;;;3.80;3.50;;;;;;;22.26;81.85;102535.66;5224821;28;20084;-62
2022/08/07 09:07:46;;;;;;;4.53;4.05;;;;;;;22.59;81.63;102531.94;5222586;28;20338;-61
2022/08/07 09:10:24;;;;;;;4.32;4.03;;;;;;;22.88;81.05;102537.31;5220609;28;20519;-62
2022/08/07 09:13:00;;;;;;;21.38;4.88;;;;;;;22.82;76.69;102533.81;5226013;28;20021;-60
2022/08/07 09:15:36;;;;;;;3.50;3.30;;;;;;;22.77;76.43;102531.13;5207521;28;20160;-58
2022/08/07 09:18:26;;;;;;;5.18;4.22;;;;;;;22.83;76.00;102527.19;5223751;28;20021;-61
2022/08/07 09:21:18;;;;;;;3.90;3.42;;;;;;;22.95;75.07;102532.25;5224038;28;20047;-62
2022/08/07 09:24:10;;;;;;;2.92;2.75;;;;;;;22.98;75.45;102528.91;5223706;28;20035;-62
2022/08/07 09:26:58;;;;;;;4.82;4.50;;;;;;;23.06;73.81;102521.91;5223935;28;20025;-60
2022/08/07 09:29:31;;;;;;;3.47;3.30;;;;;;;23.04;74.67;102524.16;5223792;28;20021;-62
2022/08/07 09:32:51;;;;;;;3.97;3.78;;;;;;;23.15;76.20;102523.66;5224074;28;20067;-63
2022/08/07 09:35:43;;;;;;;4.60;3.63;;;;;;;23.20;74.15;102517.25;5191069;28;20051;-63
2022/08/07 09:38:28;;;;;;;3.22;3.03;;;;;;;23.30;75.22;102513.50;5224023;28;20074;-63
2022/08/07 09:41:10;;;;;;;4.50;4.20;;;;;;;23.37;75.70;102508.44;5224268;28;20063;-59
2022/08/07 09:44:18;;;;;;;5.97;5.55;;;;;;;23.70;75.34;102509.22;5205150;28;20455;-62
2022/08/07 09:47:10;;;;;;;3.92;3.28;;;;;;;23.84;71.97;102499.84;5177764;28;20044;-61
2022/08/07 09:49:47;;;;;;;5.88;5.45;;;;;;;24.02;71.76;102497.28;5224010;28;20049;-63
2022/08/07 09:52:23;;;;;;;3.72;3.30;;;;;;;23.98;70.67;102494.31;5224115;28;20025;-62
2022/08/07 09:55:08;;;;;;;3.08;2.88;;;;;;;24.00;69.46;102494.81;5205470;28;20036;-62
2022/08/07 09:58:00;;;;;;;4.03;3.83;;;;;;;23.71;68.65;102486.03;5223644;28;20513;-62
2022/08/07 10:00:56;;;;;;;3.70;3.45;;;;;;;23.49;71.07;102476.47;5225896;28;20028;-65
2022/08/07 10:03:42;;;;;;;3.63;3.42;;;;;;;23.54;70.25;102490.22;5208563;28;20497;-61
2022/08/07 10:06:23;;;;;;;3.85;3.50;;;;;;;23.60;69.65;102490.13;5225918;28;20374;-62
2022/08/07 10:09:12;;;;;;;6.28;3.92;;;;;;;23.64;70.13;102486.44;5207609;28;20036;-61
2022/08/07 10:11:50;;;;;;;;;;;;;;;23.48;68.36;102480.34;5226552;28;20074;-61
2022/08/07 10:14:30;;;;;;;3.95;3.63;;;;;;;23.66;69.36;102477.88;5225414;28;19919;-61
2022/08/07 10:17:19;;;;;;;;;;;;;;;23.97;69.14;102476.09;5226406;28;20025;-62
2022/08/07 10:20:07;;;;;;;5.22;4.75;;;;;;;24.18;66.65;102466.28;5226106;28;19908;-62
2022/08/07 10:22:56;;;;;;;4.13;3.67;;;;;;;24.08;66.07;102466.50;5207414;28;20025;-62
2022/08/07 10:25:54;;;;;;;3.95;3.42;;;;;;;23.77;64.96;102473.78;5225103;28;20085;-59
2022/08/07 10:28:57;;;;;;;7.57;3.80;;;;;;;23.62;65.10;102466.63;5225394;28;20207;-61
2022/08/07 10:31:51;;;;;;;3.08;2.92;;;;;;;23.83;64.01;102459.56;5225970;28;20032;-62
2022/08/07 10:34:30;;;;;;;2.33;2.13;;;;;;;23.58;64.07;102406.88;5225271;28;20488;-59
2022/08/07 10:37:19;;;;;;;3.33;3.13;;;;;;;23.96;61.44;102454.38;5225561;28;20021;-61
2022/08/07 10:40:13;;;;;;;5.85;3.20;;;;;;;24.01;63.76;102454.25;5207299;28;20177;-61
2022/08/07 10:43:32;;;;;;;4.93;3.33;;;;;;;24.44;64.41;102452.78;5225596;28;20024;-59
2022/08/07 10:46:14;;;;;;;3.30;2.60;;;;;;;25.04;64.42;102451.63;5211401;28;20052;-62
2022/08/07 10:49:13;;;;;;;2.63;2.33;;;;;;;25.28;60.41;102442.97;5224985;28;20507;-61
2022/08/07 10:52:31;;;;;;;3.00;2.45;;;;;;;24.65;59.53;102442.03;5224703;28;20037;-62
2022/08/07 10:55:17;;;;;;;3.77;3.47;;;;;;;24.51;60.30;102431.06;5224672;28;20029;-59
2022/08/07 10:58:03;;;;;;;3.38;2.92;;;;;;;24.24;60.99;102414.56;5224648;28;20024;-62
2022/08/07 11:00:44;;;;;;;3.30;3.00;;;;;;;23.99;59.37;102404.88;5206289;28;20052;-62
2022/08/07 11:03:22;;;;;;;3.60;2.42;;;;;;;24.15;59.68;102435.72;5224282;28;20075;-63
2022/08/07 11:06:10;;;;;;;4.38;3.05;;;;;;;24.12;59.58;102434.41;5223966;28;20037;-59
2022/08/07 11:09:06;;;;;;;3.30;3.10;;;;;;;24.09;60.56;102423.97;5224155;28;20021;-61
2022/08/07 11:11:52;;;;;;;3.03;2.83;;;;;;;24.30;59.04;102418.84;5228865;28;20492;-60
2022/08/07 11:14:51;;;;;;;3.22;2.75;;;;;;;24.27;58.33;102418.63;5228630;28;20198;-61
2022/08/07 11:17:47;;;;;;;2.10;2.00;;;;;;;24.65;60.35;102414.41;5212316;28;20388;-61
2022/08/07 11:20:45;;;;;;;2.47;2.35;;;;;;;25.04;58.96;102410.16;5228684;28;20523;-61
2022/08/07 11:23:21;;;;;;;3.03;2.92;;;;;;;25.27;58.95;102402.63;5220214;28;20043;-61
2022/08/07 11:26:10;;;;;;;4.25;3.55;;;;;;;25.51;57.99;102403.88;5227964;28;20439;-62
2022/08/07 11:28:53;;;;;;;2.25;2.15;;;;;;;25.35;56.90;102390.81;5227890;28;20110;-61
2022/08/07 11:31:56;;;;;;;2.75;2.55;;;;;;;25.16;56.57;102385.50;5227799;28;20017;-62
2022/08/07 11:34:47;;;;;;;2.35;2.25;;;;;;;25.03;56.78;102392.75;5209061;28;20072;-65
2022/08/07 11:37:51;;;;;;;1.95;1.85;;;;;;;25.07;54.29;102382.72;5227123;28;20059;-61
2022/08/07 11:40:40;;;;;;;2.33;2.17;;;;;;;25.16;55.31;102388.25;5227324;28;20050;-60
2022/08/07 11:43:21;;;;;;;2.75;2.55;;;;;;;25.24;54.47;102396.59;5227421;28;20028;-59
2022/08/07 11:46:20;;;;;;;2.97;2.78;;;;;;;25.27;55.08;102392.38;5227334;28;20089;-62
2022/08/07 11:49:25;;;;;;;3.65;3.40;;;;;;;25.15;52.00;102348.75;5227022;28;20021;-62
2022/08/07 11:52:34;;;;;;;1.88;1.80;;;;;;;25.23;51.71;102385.88;5189191;28;20082;-61
2022/08/07 11:55:49;;;;;;;2.17;2.08;;;;;;;25.24;54.13;102377.25;5208749;28;20449;-62
2022/08/07 11:58:29;;;;;;;3.08;2.88;;;;;;;25.58;53.81;102376.56;5226277;28;20032;-60
2022/08/07 12:01:24;;;;;;;2.53;2.42;;;;;;;25.79;54.60;102370.44;5228109;28;20404;-62
2022/08/07 12:04:12;;;;;;;2.60;2.50;;;;;;;25.91;53.22;102367.88;5225061;28;20228;-63
2022/08/07 12:06:48;;;;;;;2.37;2.23;;;;;;;25.58;54.08;102371.03;5227675;28;20443;-61
2022/08/07 12:09:34;;;;;;;2.42;1.90;;;;;;;25.67;53.05;102361.97;5257064;23;20047;-61
2022/08/07 12:12:09;;;;;;;1.85;1.75;;;;;;;25.66;53.71;102365.88;5268707;28;20008;-63
2022/08/07 12:14:51;;;;;;;2.88;2.78;;;;;;;25.70;51.88;102364.09;5269534;28;20063;-61